createdAt,value
2018-06-13T00:02:01.497Z,17.76
2018-06-13T00:04:30.661Z,17.84
2018-06-13T00:06:59.603Z,17.77
2018-06-13T00:09:28.449Z,17.79
2018-06-13T00:11:57.376Z,17.75
2018-06-13T00:14:26.268Z,17.88
2018-06-13T00:16:55.436Z,17.70
2018-06-13T00:19:24.360Z,17.82
2018-06-13T00:21:53.263Z,17.72
2018-06-13T00:24:22.260Z,17.66
2018-06-13T00:26:51.189Z,17.71
2018-06-13T00:29:20.292Z,17.70
2018-06-13T00:31:49.237Z,17.71
2018-06-13T00:34:18.189Z,17.60
2018-06-13T00:36:47.138Z,17.56
2018-06-13T00:39:15.949Z,17.42
2018-06-13T00:41:44.901Z,17.54
2018-06-13T00:44:13.908Z,17.11
2018-06-13T00:46:43.030Z,17.40
2018-06-13T00:49:11.996Z,17.39
2018-06-13T00:51:40.859Z,17.38
2018-06-13T00:54:09.965Z,17.35
2018-06-13T00:56:38.817Z,17.37
2018-06-13T00:59:07.897Z,17.13
2018-06-13T01:01:37.052Z,17.35
2018-06-13T01:04:06.045Z,17.53
2018-06-13T01:06:35.356Z,17.54
2018-06-13T01:09:05.112Z,17.33
2018-06-13T01:11:33.987Z,17.22
2018-06-13T01:14:03.040Z,17.36
2018-06-13T01:16:31.897Z,17.32
2018-06-13T01:19:01.081Z,17.34
2018-06-13T01:21:30.109Z,17.29
2018-06-13T01:23:59.097Z,17.11
2018-06-13T01:26:28.120Z,17.16
2018-06-13T01:28:57.044Z,17.09
2018-06-13T01:31:26.141Z,17.00
2018-06-13T01:33:55.076Z,17.10
2018-06-13T01:36:29.808Z,17.02
2018-06-13T01:38:58.787Z,17.16
2018-06-13T01:41:27.675Z,16.97
2018-06-13T01:43:56.820Z,17.09
2018-06-13T01:46:25.720Z,17.03
2018-06-13T01:48:55.235Z,17.00
2018-06-13T01:51:24.373Z,16.98
2018-06-13T01:53:53.361Z,17.05
2018-06-13T01:56:22.269Z,16.75
2018-06-13T01:58:51.208Z,16.97
2018-06-13T02:01:20.409Z,17.01
2018-06-13T02:03:49.440Z,17.12
2018-06-13T02:06:18.323Z,17.00
2018-06-13T02:08:47.340Z,16.97
2018-06-13T02:11:16.322Z,16.66
2018-06-13T02:13:45.368Z,16.98
2018-06-13T02:16:14.312Z,16.89
2018-06-13T02:18:43.205Z,16.77
2018-06-13T02:21:12.183Z,16.78
2018-06-13T02:23:41.049Z,16.84
2018-06-13T02:26:09.876Z,16.94
2018-06-13T02:28:38.872Z,17.01
2018-06-13T02:31:08.017Z,16.95
2018-06-13T02:33:37.045Z,16.88
2018-06-13T02:36:06.040Z,16.81
2018-06-13T02:38:35.073Z,16.89
2018-06-13T02:41:03.981Z,16.85
2018-06-13T02:43:33.076Z,16.65
2018-06-13T02:46:02.136Z,16.76
2018-06-13T02:48:31.110Z,16.76
2018-06-13T02:51:00.077Z,16.81
2018-06-13T02:53:29.037Z,16.97
2018-06-13T02:55:58.038Z,16.74
2018-06-13T02:58:26.992Z,16.76
2018-06-13T03:00:56.141Z,16.90
2018-06-13T03:03:25.245Z,16.86
2018-06-13T03:05:54.273Z,16.98
2018-06-13T03:08:23.208Z,16.83
2018-06-13T03:10:52.273Z,16.87
2018-06-13T03:13:21.400Z,16.90
2018-06-13T03:15:50.360Z,16.90
2018-06-13T03:18:19.428Z,16.88
2018-06-13T03:20:48.432Z,16.97
2018-06-13T03:23:17.329Z,16.87
2018-06-13T03:25:46.213Z,17.00
2018-06-13T03:28:15.433Z,16.89
2018-06-13T03:30:44.396Z,16.97
2018-06-13T03:33:13.456Z,17.01
2018-06-13T03:35:42.392Z,16.98
2018-06-13T03:38:11.324Z,16.96
2018-06-13T03:40:40.184Z,16.94
2018-06-13T03:43:09.058Z,17.02
2018-06-13T03:45:38.028Z,16.97
2018-06-13T03:48:07.062Z,16.98
2018-06-13T03:50:36.045Z,16.99
2018-06-13T03:53:05.293Z,17.07
2018-06-13T03:55:34.225Z,16.98
2018-06-13T03:58:03.126Z,17.06
2018-06-13T04:00:32.148Z,16.90
2018-06-13T04:03:01.096Z,17.04
2018-06-13T04:05:30.461Z,17.00
2018-06-13T04:07:59.533Z,17.02
2018-06-13T04:10:28.496Z,17.01
2018-06-13T04:12:57.395Z,16.94
2018-06-13T04:15:26.344Z,17.03
2018-06-13T04:17:55.266Z,17.07
2018-06-13T04:20:24.152Z,17.08
2018-06-13T04:22:53.248Z,16.88
2018-06-13T04:25:22.262Z,17.07
2018-06-13T04:27:51.232Z,17.12
2018-06-13T04:30:20.428Z,17.10
2018-06-13T04:32:49.297Z,17.24
2018-06-13T04:35:18.281Z,17.05
2018-06-13T04:37:47.308Z,16.89
2018-06-13T04:40:16.168Z,17.13
2018-06-13T04:42:45.252Z,17.06
2018-06-13T04:45:14.252Z,17.13
2018-06-13T04:47:43.081Z,17.18
2018-06-13T04:50:11.857Z,17.05
2018-06-13T04:52:40.876Z,17.20
2018-06-13T04:55:09.748Z,17.24
2018-06-13T04:57:38.503Z,17.24
2018-06-13T05:00:07.405Z,17.42
2018-06-13T05:02:36.303Z,17.24
2018-06-13T05:05:05.224Z,17.28
2018-06-13T05:07:34.268Z,17.34
2018-06-13T05:10:04.005Z,17.33
2018-06-13T05:12:32.768Z,17.27
2018-06-13T05:15:01.626Z,17.34
2018-06-13T05:17:30.573Z,17.35
2018-06-13T05:19:59.512Z,17.42
2018-06-13T05:22:28.368Z,17.44
2018-06-13T05:24:57.234Z,17.51
2018-06-13T05:27:26.137Z,17.49
2018-06-13T05:29:54.909Z,17.35
2018-06-13T05:32:23.996Z,17.47
2018-06-13T05:34:52.972Z,17.55
2018-06-13T05:37:22.065Z,17.47
2018-06-13T05:39:50.876Z,17.60
2018-06-13T05:42:19.860Z,17.51
2018-06-13T05:44:49.027Z,17.52
2018-06-13T05:47:17.834Z,17.37
2018-06-13T05:49:46.771Z,17.36
2018-06-13T05:52:15.552Z,17.24
2018-06-13T05:54:44.468Z,17.25
2018-06-13T05:57:15.346Z,17.42
2018-06-13T05:59:44.277Z,17.52
2018-06-13T06:02:13.189Z,17.49
2018-06-13T06:04:42.097Z,17.42
2018-06-13T06:07:10.853Z,17.24
2018-06-13T06:09:43.279Z,17.45
2018-06-13T06:12:14.885Z,17.62
2018-06-13T06:14:46.130Z,17.85
2018-06-13T06:17:17.288Z,17.98
2018-06-13T06:19:48.051Z,18.06
2018-06-13T06:22:16.903Z,18.11
2018-06-13T06:24:46.712Z,18.26
2018-06-13T06:27:19.137Z,18.54
2018-06-13T06:29:50.760Z,18.59
2018-06-13T06:32:22.209Z,18.43
2018-06-13T06:34:51.753Z,18.44
2018-06-13T06:37:22.541Z,18.56
2018-06-13T06:39:53.732Z,18.41
2018-06-13T06:42:23.441Z,18.45
2018-06-13T06:44:54.301Z,18.75
2018-06-13T06:47:23.292Z,18.64
2018-06-13T06:49:54.521Z,18.67
2018-06-13T06:52:23.333Z,18.86
2018-06-13T06:54:54.624Z,18.51
2018-06-13T06:57:24.476Z,18.64
2018-06-13T06:59:54.376Z,18.64
2018-06-13T07:02:24.211Z,18.71
2018-06-13T07:04:53.628Z,18.58
2018-06-13T07:07:23.328Z,18.57
2018-06-13T07:09:53.428Z,18.65
2018-06-13T07:12:22.895Z,18.90
2018-06-13T07:14:52.838Z,19.06
2018-06-13T07:17:22.476Z,19.19
2018-06-13T07:19:52.118Z,19.27
2018-06-13T07:22:20.892Z,19.42
2018-06-13T07:24:49.846Z,19.31
2018-06-13T07:27:18.521Z,19.26
2018-06-13T07:29:47.260Z,19.17
2018-06-13T07:32:16.197Z,19.38
2018-06-13T07:34:45.121Z,19.42
2018-06-13T07:37:14.021Z,19.81
2018-06-13T07:39:42.764Z,19.69
2018-06-13T07:42:11.601Z,19.77
2018-06-13T07:44:40.289Z,20.04
2018-06-13T07:47:09.036Z,20.13
2018-06-13T07:49:37.865Z,19.91
2018-06-13T07:52:06.756Z,20.09
2018-06-13T07:54:35.560Z,20.26
2018-06-13T07:57:04.386Z,20.56
2018-06-13T07:59:33.176Z,20.78
2018-06-13T08:02:01.985Z,21.12
2018-06-13T08:04:30.759Z,21.15
2018-06-13T08:06:59.593Z,20.93
2018-06-13T08:09:28.430Z,21.14
2018-06-13T08:11:57.323Z,21.58
2018-06-13T08:14:26.044Z,21.68
2018-06-13T08:16:54.811Z,21.97
2018-06-13T08:19:23.617Z,22.60
2018-06-13T08:21:52.407Z,22.59
2018-06-13T08:24:21.160Z,22.87
2018-06-13T08:26:54.813Z,22.75
2018-06-13T08:29:24.057Z,22.72
2018-06-13T08:31:52.792Z,22.63
2018-06-13T08:34:21.737Z,22.68
2018-06-13T08:36:50.538Z,22.66
2018-06-13T08:39:19.352Z,22.83
2018-06-13T08:41:48.209Z,22.46
2018-06-13T08:44:17.041Z,22.42
2018-06-13T08:46:45.888Z,22.75
2018-06-13T08:49:14.677Z,23.25
2018-06-13T08:51:43.596Z,24.06
2018-06-13T08:54:12.392Z,24.09
2018-06-13T08:56:41.360Z,24.64
2018-06-13T08:59:10.164Z,24.95
2018-06-13T09:01:38.929Z,24.76
2018-06-13T09:04:07.649Z,24.11
2018-06-13T09:06:36.381Z,23.29
2018-06-13T09:09:07.570Z,22.72
2018-06-13T09:11:37.009Z,22.43
2018-06-13T09:14:06.233Z,22.04
2018-06-13T09:16:34.993Z,21.82
2018-06-13T09:19:03.697Z,21.54
2018-06-13T09:21:32.829Z,21.23
2018-06-13T09:24:01.637Z,21.54
2018-06-13T09:26:30.409Z,21.56
2018-06-13T09:28:59.209Z,21.29
2018-06-13T09:31:28.061Z,21.12
2018-06-13T09:33:56.893Z,21.02
2018-06-13T09:36:25.678Z,20.99
2018-06-13T09:38:54.373Z,20.61
2018-06-13T09:41:23.169Z,20.63
2018-06-13T09:43:52.036Z,20.49
2018-06-13T09:46:21.013Z,20.43
2018-06-13T09:48:49.781Z,20.63
2018-06-13T09:51:18.477Z,20.42
2018-06-13T09:53:47.300Z,20.65
2018-06-13T09:56:16.064Z,20.58
2018-06-13T09:58:50.272Z,20.75
2018-06-13T10:01:24.205Z,20.84
2018-06-13T10:03:53.172Z,21.37
2018-06-13T10:06:21.896Z,21.23
2018-06-13T10:08:50.590Z,21.50
2018-06-13T10:11:19.495Z,21.83
2018-06-13T10:13:48.221Z,22.15
2018-06-13T10:16:18.202Z,22.44
2018-06-13T10:18:47.017Z,22.65
2018-06-13T10:21:15.810Z,22.64
2018-06-13T10:23:44.721Z,23.06
2018-06-13T10:26:13.609Z,23.43
2018-06-13T10:28:42.422Z,23.63
2018-06-13T10:31:11.109Z,23.50
2018-06-13T10:33:40.073Z,23.80
2018-06-13T10:36:08.897Z,23.54
2018-06-13T10:38:37.576Z,23.50
2018-06-13T10:41:06.304Z,23.56
2018-06-13T10:43:35.034Z,23.19
2018-06-13T10:46:03.921Z,23.19
2018-06-13T10:48:32.652Z,22.97
2018-06-13T10:51:01.364Z,22.94
2018-06-13T10:53:30.093Z,22.81
2018-06-13T10:55:58.781Z,23.01
2018-06-13T10:58:27.644Z,23.10
2018-06-13T11:00:56.425Z,22.96
2018-06-13T11:03:25.120Z,23.10
2018-06-13T11:05:53.878Z,22.91
2018-06-13T11:08:22.599Z,22.87
2018-06-13T11:10:51.513Z,23.09
2018-06-13T11:13:20.261Z,22.87
2018-06-13T11:15:51.518Z,23.18
2018-06-13T11:18:20.253Z,23.34
2018-06-13T11:20:48.961Z,23.26
2018-06-13T11:23:17.690Z,23.22
2018-06-13T11:25:46.392Z,23.20
2018-06-13T11:28:15.164Z,23.09
2018-06-13T11:30:44.340Z,23.25
2018-06-13T11:33:18.660Z,23.15
2018-06-13T11:35:47.373Z,23.44
2018-06-13T11:38:16.081Z,23.38
2018-06-13T11:40:44.980Z,23.12
2018-06-13T11:43:14.230Z,22.83
2018-06-13T11:45:42.997Z,22.92
2018-06-13T11:48:11.716Z,23.17
2018-06-13T11:50:40.382Z,23.09
2018-06-13T11:53:09.104Z,23.24
2018-06-13T11:55:37.795Z,23.10
2018-06-13T11:58:06.791Z,23.38
2018-06-13T12:00:35.492Z,23.24
2018-06-13T12:03:04.197Z,23.13
2018-06-13T12:05:32.952Z,22.63
2018-06-13T12:08:01.698Z,22.60
2018-06-13T12:10:30.788Z,22.23
2018-06-13T12:12:59.780Z,22.08
2018-06-13T12:15:28.797Z,22.18
2018-06-13T12:17:57.614Z,21.95
2018-06-13T12:20:26.492Z,21.64
2018-06-13T12:22:55.477Z,21.64
2018-06-13T12:25:24.267Z,21.37
2018-06-13T12:27:53.732Z,21.25
2018-06-13T12:30:22.579Z,21.11
2018-06-13T12:32:51.410Z,21.17
2018-06-13T12:35:20.405Z,20.71
2018-06-13T12:37:49.297Z,20.65
2018-06-13T12:40:18.266Z,20.49
2018-06-13T12:42:47.131Z,20.36
2018-06-13T12:45:15.821Z,20.59
2018-06-13T12:47:44.981Z,20.56
2018-06-13T12:50:13.886Z,20.44
2018-06-13T12:52:42.643Z,20.54
2018-06-13T12:55:11.470Z,20.66
2018-06-13T12:57:40.181Z,20.86
2018-06-13T13:00:09.292Z,20.72
2018-06-13T13:02:38.207Z,20.88
2018-06-13T13:05:07.149Z,21.22
2018-06-13T13:07:35.918Z,21.59
2018-06-13T13:10:05.031Z,22.20
2018-06-13T13:12:33.933Z,22.43
2018-06-13T13:15:02.654Z,22.99
2018-06-13T13:17:31.445Z,23.23
2018-06-13T13:20:00.307Z,23.46
2018-06-13T13:22:29.012Z,24.04
2018-06-13T13:24:58.024Z,24.57
2018-06-13T13:27:26.712Z,24.18
2018-06-13T13:29:55.393Z,24.82
2018-06-13T13:32:24.089Z,24.61
2018-06-13T13:34:52.864Z,25.27
2018-06-13T13:37:28.257Z,25.48
2018-06-13T13:39:56.990Z,26.38
2018-06-13T13:42:25.812Z,26.13
2018-06-13T13:44:54.530Z,25.49
2018-06-13T13:47:23.236Z,24.78
2018-06-13T13:49:52.126Z,23.92
2018-06-13T13:52:20.937Z,23.07
2018-06-13T13:54:49.660Z,22.27
2018-06-13T13:57:18.440Z,21.81
2018-06-13T13:59:47.185Z,21.35
2018-06-13T14:02:16.345Z,21.17
2018-06-13T14:04:45.178Z,21.14
2018-06-13T14:07:13.962Z,21.13
2018-06-13T14:09:42.788Z,20.54
2018-06-13T14:12:11.795Z,20.89
2018-06-13T14:14:40.701Z,20.88
2018-06-13T14:17:09.409Z,21.23
2018-06-13T14:19:38.209Z,21.38
2018-06-13T14:22:07.080Z,21.84
2018-06-13T14:24:35.731Z,22.24
2018-06-13T14:27:04.649Z,22.56
2018-06-13T14:29:33.379Z,23.00
2018-06-13T14:32:02.065Z,22.96
2018-06-13T14:34:30.784Z,23.05
2018-06-13T14:36:59.559Z,23.00
2018-06-13T14:39:28.622Z,23.16
2018-06-13T14:41:57.421Z,23.20
2018-06-13T14:44:26.208Z,23.52
2018-06-13T14:46:54.948Z,23.49
2018-06-13T14:49:23.625Z,23.34
2018-06-13T14:51:55.199Z,22.79
2018-06-13T14:54:23.895Z,22.62
2018-06-13T14:56:52.728Z,22.51
2018-06-13T14:59:21.433Z,22.12
2018-06-13T15:01:50.688Z,21.62
2018-06-13T15:04:24.729Z,21.35
2018-06-13T15:06:53.489Z,20.98
2018-06-13T15:09:22.281Z,20.91
2018-06-13T15:11:51.100Z,20.75
2018-06-13T15:14:19.796Z,20.54
2018-06-13T15:16:48.744Z,20.54
2018-06-13T15:19:17.568Z,20.69
2018-06-13T15:21:46.471Z,20.74
2018-06-13T15:24:15.236Z,20.95
2018-06-13T15:26:44.192Z,21.07
2018-06-13T15:29:13.505Z,21.02
2018-06-13T15:31:42.288Z,20.96
2018-06-13T15:34:10.974Z,21.34
2018-06-13T15:36:39.815Z,21.26
2018-06-13T15:39:11.268Z,21.18
2018-06-13T15:41:40.148Z,21.25
2018-06-13T15:44:08.937Z,21.27
2018-06-13T15:46:37.792Z,21.43
2018-06-13T15:49:06.608Z,21.44
2018-06-13T15:51:35.392Z,21.42
2018-06-13T15:54:04.512Z,21.57
2018-06-13T15:56:33.283Z,21.40
2018-06-13T15:59:02.473Z,21.50
2018-06-13T16:01:31.548Z,21.64
2018-06-13T16:04:00.324Z,21.51
2018-06-13T16:06:29.265Z,21.32
2018-06-13T16:08:58.033Z,21.68
2018-06-13T16:11:26.995Z,21.45
2018-06-13T16:13:55.852Z,21.29
2018-06-13T16:16:24.626Z,21.32
2018-06-13T16:18:53.785Z,21.03
2018-06-13T16:21:22.673Z,20.74
2018-06-13T16:23:51.591Z,21.22
2018-06-13T16:26:20.373Z,21.26
2018-06-13T16:28:49.232Z,21.13
2018-06-13T16:31:18.621Z,21.00
2018-06-13T16:33:47.528Z,21.16
2018-06-13T16:36:16.574Z,21.16
2018-06-13T16:38:45.662Z,21.12
2018-06-13T16:41:14.962Z,20.78
2018-06-13T16:43:44.209Z,21.05
2018-06-13T16:46:13.004Z,21.10
2018-06-13T16:48:42.050Z,20.97
2018-06-13T16:51:21.884Z,21.02
2018-06-13T16:54:01.792Z,20.98
2018-06-13T16:56:30.993Z,20.96
2018-06-13T16:59:00.392Z,20.80
2018-06-13T17:01:29.352Z,20.52
2018-06-13T17:03:58.370Z,20.38
2018-06-13T17:06:42.025Z,20.41
2018-06-13T17:09:20.670Z,20.18
2018-06-13T17:12:11.408Z,20.32
2018-06-13T17:15:04.435Z,20.20
2018-06-13T17:17:54.842Z,20.27
2018-06-13T17:20:25.328Z,20.31
2018-06-13T17:22:58.173Z,19.90
2018-06-13T17:25:28.080Z,19.63
2018-06-13T17:27:58.101Z,19.74
2018-06-13T17:30:28.016Z,19.94
2018-06-13T17:32:58.428Z,20.03
2018-06-13T17:35:27.612Z,20.00
2018-06-13T17:37:56.762Z,19.73
2018-06-13T17:40:25.996Z,19.70
2018-06-13T17:42:54.804Z,19.84
2018-06-13T17:45:24.060Z,19.73
2018-06-13T17:47:53.046Z,19.67
2018-06-13T17:50:22.042Z,19.65
2018-06-13T17:52:51.213Z,19.65
2018-06-13T17:55:20.132Z,19.63
2018-06-13T17:57:49.273Z,19.58
2018-06-13T18:00:18.124Z,19.47
2018-06-13T18:02:47.548Z,19.56
2018-06-13T18:05:16.981Z,19.28
2018-06-13T18:07:46.176Z,19.53
2018-06-13T18:10:15.444Z,19.47
2018-06-13T18:12:44.221Z,19.57
2018-06-13T18:15:13.145Z,19.52
2018-06-13T18:17:41.931Z,19.34
2018-06-13T18:20:10.749Z,19.43
2018-06-13T18:22:39.864Z,19.44
2018-06-13T18:25:08.760Z,19.37
2018-06-13T18:27:37.562Z,19.39
2018-06-13T18:30:06.444Z,19.25
2018-06-13T18:32:35.551Z,19.18
2018-06-13T18:35:04.381Z,19.06
2018-06-13T18:37:33.061Z,19.12
2018-06-13T18:40:01.912Z,19.06
2018-06-13T18:42:30.676Z,19.07
2018-06-13T18:44:59.372Z,19.02
2018-06-13T18:47:28.206Z,19.03
2018-06-13T18:49:56.895Z,18.91
2018-06-13T18:52:25.582Z,18.91
2018-06-13T18:54:54.472Z,18.84
2018-06-13T18:57:23.221Z,18.80
2018-06-13T18:59:52.028Z,18.63
2018-06-13T19:02:20.805Z,18.60
2018-06-13T19:04:49.612Z,18.64
2018-06-13T19:07:18.548Z,18.64
2018-06-13T19:09:47.353Z,18.63
2018-06-13T19:12:16.470Z,18.59
2018-06-13T19:14:45.236Z,18.33
2018-06-13T19:17:14.448Z,18.48
2018-06-13T19:19:43.256Z,18.43
2018-06-13T19:22:12.121Z,18.42
2018-06-13T19:24:41.112Z,18.36
2018-06-13T19:27:09.958Z,18.37
2018-06-13T19:29:39.094Z,18.38
2018-06-13T19:32:10.106Z,18.31
2018-06-13T19:34:39.028Z,18.24
2018-06-13T19:37:09.366Z,18.28
2018-06-13T19:39:38.238Z,18.27
2018-06-13T19:42:07.192Z,18.05
2018-06-13T19:44:36.511Z,18.16
2018-06-13T19:47:10.528Z,18.01
2018-06-13T19:49:39.270Z,18.03
2018-06-13T19:52:09.040Z,18.10
2018-06-13T19:54:43.056Z,18.04
2018-06-13T19:57:11.749Z,18.06
2018-06-13T19:59:41.700Z,18.02
2018-06-13T20:02:11.445Z,18.00
2018-06-13T20:04:45.672Z,17.98
2018-06-13T20:07:14.810Z,17.98
2018-06-13T20:09:43.722Z,18.01
2018-06-13T20:12:55.489Z,18.02
2018-06-13T20:15:29.881Z,18.02
2018-06-13T20:18:05.277Z,17.97
2018-06-13T20:20:41.062Z,17.98
2018-06-13T20:23:09.809Z,17.93
2018-06-13T20:25:44.481Z,17.92
2018-06-13T20:28:18.965Z,17.86
2018-06-13T20:30:52.929Z,17.92
2018-06-13T20:33:21.739Z,17.87
2018-06-13T20:35:50.752Z,17.86
2018-06-13T20:38:20.952Z,17.81
2018-06-13T20:40:50.420Z,17.81
2018-06-13T20:43:20.505Z,17.87
2018-06-13T20:45:50.157Z,17.91
2018-06-13T20:48:20.874Z,17.83
2018-06-13T20:50:50.641Z,17.74
2018-06-13T20:53:19.988Z,17.80
2018-06-13T20:55:48.706Z,17.83
2018-06-13T20:58:18.491Z,17.86
2018-06-13T21:00:48.800Z,17.79
2018-06-13T21:03:17.512Z,17.81
2018-06-13T21:05:46.499Z,17.82
2018-06-13T21:08:15.456Z,17.79
2018-06-13T21:10:44.482Z,17.78
2018-06-13T21:13:13.328Z,17.49
2018-06-13T21:15:42.105Z,17.62
2018-06-13T21:18:11.324Z,17.70
2018-06-13T21:20:40.002Z,17.71
2018-06-13T21:23:08.681Z,17.77
2018-06-13T21:25:37.418Z,17.73
2018-06-13T21:28:06.164Z,17.80
2018-06-13T21:30:35.049Z,17.78
2018-06-13T21:33:03.733Z,17.79
2018-06-13T21:35:32.444Z,17.78
2018-06-13T21:38:01.192Z,17.65
2018-06-13T21:40:29.892Z,17.51
2018-06-13T21:42:58.687Z,17.59
2018-06-13T21:45:27.525Z,17.61
2018-06-13T21:47:56.449Z,17.58
2018-06-13T21:50:25.292Z,17.45
2018-06-13T21:52:54.128Z,17.37
2018-06-13T21:55:23.137Z,17.35
2018-06-13T21:57:51.997Z,17.34
2018-06-13T22:00:20.817Z,17.44
2018-06-13T22:02:49.677Z,17.42
2018-06-13T22:05:18.444Z,17.31
2018-06-13T22:07:47.296Z,17.38
2018-06-13T22:10:16.125Z,17.40
2018-06-13T22:12:45.050Z,17.40
2018-06-13T22:15:23.531Z,17.51
2018-06-13T22:17:52.628Z,17.53
2018-06-13T22:20:21.436Z,17.54
2018-06-13T22:22:50.317Z,17.54
2018-06-13T22:25:19.253Z,17.52
2018-06-13T22:27:48.069Z,17.47
2018-06-13T22:30:17.281Z,17.52
2018-06-13T22:32:46.519Z,17.50
2018-06-13T22:35:15.273Z,17.54
2018-06-13T22:37:44.177Z,17.47
2018-06-13T22:40:12.985Z,17.52
2018-06-13T22:42:41.737Z,17.45
2018-06-13T22:45:10.785Z,17.50
2018-06-13T22:47:39.552Z,17.54
2018-06-13T22:50:08.415Z,17.54
2018-06-13T22:52:37.337Z,17.52
2018-06-13T22:55:06.196Z,17.58
2018-06-13T22:57:35.292Z,17.55
2018-06-13T23:00:04.273Z,17.58
2018-06-13T23:02:33.062Z,17.56
2018-06-13T23:05:01.789Z,17.56
2018-06-13T23:07:30.768Z,17.46
2018-06-13T23:09:59.672Z,17.53
2018-06-13T23:12:28.432Z,17.53
2018-06-13T23:14:57.321Z,17.47
2018-06-13T23:17:26.236Z,17.46
2018-06-13T23:19:55.101Z,17.40
2018-06-13T23:22:24.092Z,17.30
2018-06-13T23:24:52.873Z,17.26
2018-06-13T23:27:21.603Z,17.23
2018-06-13T23:29:50.380Z,17.12
2018-06-13T23:32:19.120Z,17.21
2018-06-13T23:34:47.876Z,17.13
2018-06-13T23:37:16.717Z,17.17
2018-06-13T23:39:45.397Z,17.08
2018-06-13T23:42:14.157Z,17.07
2018-06-13T23:44:42.828Z,16.98
2018-06-13T23:47:11.557Z,16.98
2018-06-13T23:49:40.241Z,17.07
2018-06-13T23:52:08.931Z,17.15
2018-06-13T23:54:37.752Z,17.15
2018-06-13T23:57:06.545Z,17.22
2018-06-13T23:59:35.717Z,17.26
